Terminal Aerodrome Forecast
Issued by NWS Cleveland, OH

Home | Current Version | Previous Version | Graphics & Text | Print | Product List | Glossary Off
Versions: 1 2 3 4 5 6 7 8 9 10 11 12 13 14 15 16

910
FTUS41 KCLE 300535
TAFMFD
TAF
KMFD 300535Z 3006/3106 VRB04KT P6SM BKN250
      TEMPO 3009/3012 4SM BR
     FM301400 28007KT P6SM SCT030
      TEMPO 3014/3016 BKN030
     FM301600 30007KT P6SM BKN050
     FM302300 32004KT P6SM SCT250=

USA.gov is the U.S. government's official web portal to all federal, state and local government web resources and services.